sensor_id;sensor_type;location;lat;lon;timestamp;temperature;humidity
47090;DHT22;32840;52.516;13.294;2023-04-24T00:01:10;14.30;99.90
47090;DHT22;32840;52.516;13.294;2023-04-24T00:03:57;14.30;99.90
47090;DHT22;32840;52.516;13.294;2023-04-24T00:06:43;14.30;99.90
47090;DHT22;32840;52.516;13.294;2023-04-24T00:09:28;14.30;99.90
47090;DHT22;32840;52.516;13.294;2023-04-24T00:12:14;14.20;99.90
47090;DHT22;32840;52.516;13.294;2023-04-24T00:15:00;14.20;99.90
47090;DHT22;32840;52.516;13.294;2023-04-24T00:17:45;14.20;99.90
47090;DHT22;32840;52.516;13.294;2023-04-24T00:20:30;14.20;99.90
47090;DHT22;32840;52.516;13.294;2023-04-24T00:23:17;14.10;99.90
47090;DHT22;32840;52.516;13.294;2023-04-24T00:26:02;14.00;99.90
47090;DHT22;32840;52.516;13.294;2023-04-24T00:28:47;14.00;99.90
47090;DHT22;32840;52.516;13.294;2023-04-24T00:31:32;13.90;99.90
47090;DHT22;32840;52.516;13.294;2023-04-24T00:34:20;14.00;99.90
47090;DHT22;32840;52.516;13.294;2023-04-24T00:37:05;14.00;99.90
47090;DHT22;32840;52.516;13.294;2023-04-24T00:39:50;14.00;99.90
47090;DHT22;32840;52.516;13.294;2023-04-24T00:42:35;14.00;99.90
47090;DHT22;32840;52.516;13.294;2023-04-24T00:45:24;13.90;99.90
47090;DHT22;32840;52.516;13.294;2023-04-24T00:48:09;13.90;99.90
47090;DHT22;32840;52.516;13.294;2023-04-24T00:50:54;13.90;99.90
47090;DHT22;32840;52.516;13.294;2023-04-24T00:53:39;13.90;99.90
47090;DHT22;32840;52.516;13.294;2023-04-24T00:56:23;13.90;99.90
47090;DHT22;32840;52.516;13.294;2023-04-24T00:59:09;13.90;99.90
47090;DHT22;32840;52.516;13.294;2023-04-24T01:01:55;13.90;99.90
47090;DHT22;32840;52.516;13.294;2023-04-24T01:04:42;13.90;99.90
47090;DHT22;32840;52.516;13.294;2023-04-24T01:07:27;14.00;99.90
47090;DHT22;32840;52.516;13.294;2023-04-24T01:10:13;14.00;99.90
47090;DHT22;32840;52.516;13.294;2023-04-24T01:12:58;14.10;99.90
47090;DHT22;32840;52.516;13.294;2023-04-24T01:15:45;14.10;99.90
47090;DHT22;32840;52.516;13.294;2023-04-24T01:18:30;14.10;99.90
47090;DHT22;32840;52.516;13.294;2023-04-24T01:21:15;14.10;99.90
47090;DHT22;32840;52.516;13.294;2023-04-24T01:24:05;14.10;99.90
47090;DHT22;32840;52.516;13.294;2023-04-24T01:26:50;14.10;99.90
47090;DHT22;32840;52.516;13.294;2023-04-24T01:29:35;14.20;99.90
47090;DHT22;32840;52.516;13.294;2023-04-24T01:32:20;14.20;99.90
47090;DHT22;32840;52.516;13.294;2023-04-24T01:35:05;14.30;99.90
47090;DHT22;32840;52.516;13.294;2023-04-24T01:37:50;14.20;99.90
47090;DHT22;32840;52.516;13.294;2023-04-24T01:40:35;14.30;99.90
47090;DHT22;32840;52.516;13.294;2023-04-24T01:43:20;14.40;99.90
47090;DHT22;32840;52.516;13.294;2023-04-24T01:46:06;14.30;99.90
47090;DHT22;32840;52.516;13.294;2023-04-24T01:48:51;14.30;99.90
47090;DHT22;32840;52.516;13.294;2023-04-24T01:51:36;14.20;99.90
47090;DHT22;32840;52.516;13.294;2023-04-24T01:54:21;14.10;99.90
47090;DHT22;32840;52.516;13.294;2023-04-24T01:57:05;14.00;99.90
47090;DHT22;32840;52.516;13.294;2023-04-24T01:59:51;14.00;99.90
47090;DHT22;32840;52.516;13.294;2023-04-24T02:02:36;14.00;99.90
47090;DHT22;32840;52.516;13.294;2023-04-24T02:05:21;13.90;99.90
47090;DHT22;32840;52.516;13.294;2023-04-24T02:08:06;13.90;99.90
47090;DHT22;32840;52.516;13.294;2023-04-24T02:10:51;13.90;99.90
47090;DHT22;32840;52.516;13.294;2023-04-24T02:13:36;13.90;99.90
47090;DHT22;32840;52.516;13.294;2023-04-24T02:16:21;13.80;99.90
47090;DHT22;32840;52.516;13.294;2023-04-24T02:19:06;13.90;99.90
47090;DHT22;32840;52.516;13.294;2023-04-24T02:21:51;13.90;99.90
47090;DHT22;32840;52.516;13.294;2023-04-24T02:24:39;14.00;99.90
47090;DHT22;32840;52.516;13.294;2023-04-24T02:27:24;13.90;99.90
47090;DHT22;32840;52.516;13.294;2023-04-24T02:30:10;13.90;99.90
47090;DHT22;32840;52.516;13.294;2023-04-24T02:32:59;13.90;99.90
47090;DHT22;32840;52.516;13.294;2023-04-24T02:35:44;13.90;99.90
47090;DHT22;32840;52.516;13.294;2023-04-24T02:38:29;13.90;99.90
47090;DHT22;32840;52.516;13.294;2023-04-24T02:41:14;13.90;99.90
47090;DHT22;32840;52.516;13.294;2023-04-24T02:43:58;13.90;99.90
47090;DHT22;32840;52.516;13.294;2023-04-24T02:46:43;13.90;99.90
47090;DHT22;32840;52.516;13.294;2023-04-24T02:49:28;13.90;99.90
47090;DHT22;32840;52.516;13.294;2023-04-24T02:52:16;13.90;99.90
47090;DHT22;32840;52.516;13.294;2023-04-24T02:55:01;13.90;99.90
47090;DHT22;32840;52.516;13.294;2023-04-24T02:57:46;14.00;99.90
47090;DHT22;32840;52.516;13.294;2023-04-24T03:00:31;14.00;99.90
47090;DHT22;32840;52.516;13.294;2023-04-24T03:03:16;14.00;99.90
47090;DHT22;32840;52.516;13.294;2023-04-24T03:06:02;14.00;99.90
47090;DHT22;32840;52.516;13.294;2023-04-24T03:08:47;14.00;99.90
47090;DHT22;32840;52.516;13.294;2023-04-24T03:11:32;14.00;99.90
47090;DHT22;32840;52.516;13.294;2023-04-24T03:14:18;14.10;99.90
47090;DHT22;32840;52.516;13.294;2023-04-24T03:17:04;14.10;99.90
47090;DHT22;32840;52.516;13.294;2023-04-24T03:19:50;14.10;99.90
47090;DHT22;32840;52.516;13.294;2023-04-24T03:22:35;14.10;99.90
47090;DHT22;32840;52.516;13.294;2023-04-24T03:25:21;14.20;99.90
47090;DHT22;32840;52.516;13.294;2023-04-24T03:28:06;14.10;99.90
47090;DHT22;32840;52.516;13.294;2023-04-24T03:30:51;14.10;99.90
47090;DHT22;32840;52.516;13.294;2023-04-24T03:33:36;14.00;99.90
47090;DHT22;32840;52.516;13.294;2023-04-24T03:36:21;14.10;99.90
47090;DHT22;32840;52.516;13.294;2023-04-24T03:39:06;14.10;99.90
47090;DHT22;32840;52.516;13.294;2023-04-24T03:41:51;14.10;99.90
47090;DHT22;32840;52.516;13.294;2023-04-24T03:44:36;14.10;99.90
47090;DHT22;32840;52.516;13.294;2023-04-24T03:47:21;14.10;99.90
47090;DHT22;32840;52.516;13.294;2023-04-24T03:50:06;14.20;99.90
47090;DHT22;32840;52.516;13.294;2023-04-24T03:52:54;14.20;99.90
47090;DHT22;32840;52.516;13.294;2023-04-24T03:55:39;14.10;99.90
47090;DHT22;32840;52.516;13.294;2023-04-24T03:58:23;14.00;99.90
47090;DHT22;32840;52.516;13.294;2023-04-24T04:01:08;14.00;99.90
47090;DHT22;32840;52.516;13.294;2023-04-24T04:03:53;14.00;99.90
47090;DHT22;32840;52.516;13.294;2023-04-24T04:06:38;13.90;99.90
47090;DHT22;32840;52.516;13.294;2023-04-24T04:09:23;14.00;99.90
47090;DHT22;32840;52.516;13.294;2023-04-24T04:12:08;14.00;99.90
47090;DHT22;32840;52.516;13.294;2023-04-24T04:14:53;14.00;99.90
47090;DHT22;32840;52.516;13.294;2023-04-24T04:17:37;14.00;99.90
47090;DHT22;32840;52.516;13.294;2023-04-24T04:20:22;13.90;99.90
47090;DHT22;32840;52.516;13.294;2023-04-24T04:23:09;13.90;99.90
47090;DHT22;32840;52.516;13.294;2023-04-24T04:25:55;14.00;99.90
47090;DHT22;32840;52.516;13.294;2023-04-24T04:28:40;14.00;99.90
47090;DHT22;32840;52.516;13.294;2023-04-24T04:31:26;14.00;99.90
47090;DHT22;32840;52.516;13.294;2023-04-24T04:34:11;13.90;99.90
47090;DHT22;32840;52.516;13.294;2023-04-24T04:36:58;13.90;99.90
47090;DHT22;32840;52.516;13.294;2023-04-24T04:39:46;13.90;99.90
47090;DHT22;32840;52.516;13.294;2023-04-24T04:42:31;14.00;99.90
47090;DHT22;32840;52.516;13.294;2023-04-24T04:45:17;14.00;99.90
47090;DHT22;32840;52.516;13.294;2023-04-24T04:48:02;14.00;99.90
47090;DHT22;32840;52.516;13.294;2023-04-24T04:50:47;13.90;99.90
47090;DHT22;32840;52.516;13.294;2023-04-24T04:53:32;13.90;99.90
47090;DHT22;32840;52.516;13.294;2023-04-24T04:56:18;13.90;99.90
47090;DHT22;32840;52.516;13.294;2023-04-24T04:59:02;14.00;99.90
47090;DHT22;32840;52.516;13.294;2023-04-24T05:01:48;14.00;99.90
47090;DHT22;32840;52.516;13.294;2023-04-24T05:04:33;14.00;99.90
47090;DHT22;32840;52.516;13.294;2023-04-24T05:07:17;14.00;99.90
47090;DHT22;32840;52.516;13.294;2023-04-24T05:10:03;14.00;99.90
47090;DHT22;32840;52.516;13.294;2023-04-24T05:12:48;14.00;99.90
47090;DHT22;32840;52.516;13.294;2023-04-24T05:15:34;14.10;99.90
47090;DHT22;32840;52.516;13.294;2023-04-24T05:18:20;14.10;99.90
47090;DHT22;32840;52.516;13.294;2023-04-24T05:21:04;14.10;99.90
47090;DHT22;32840;52.516;13.294;2023-04-24T05:24:06;14.10;99.90
47090;DHT22;32840;52.516;13.294;2023-04-24T05:26:52;14.10;99.90
47090;DHT22;32840;52.516;13.294;2023-04-24T05:29:37;14.20;99.90
47090;DHT22;32840;52.516;13.294;2023-04-24T05:32:22;14.20;99.90
47090;DHT22;32840;52.516;13.294;2023-04-24T05:35:09;14.20;99.90
47090;DHT22;32840;52.516;13.294;2023-04-24T05:37:55;14.20;99.90
47090;DHT22;32840;52.516;13.294;2023-04-24T05:40:40;14.30;99.90
47090;DHT22;32840;52.516;13.294;2023-04-24T05:43:24;14.30;99.90
47090;DHT22;32840;52.516;13.294;2023-04-24T05:46:09;14.20;99.90
47090;DHT22;32840;52.516;13.294;2023-04-24T05:48:54;14.20;99.90
47090;DHT22;32840;52.516;13.294;2023-04-24T05:51:39;14.20;99.90
47090;DHT22;32840;52.516;13.294;2023-04-24T05:54:25;14.20;99.90
47090;DHT22;32840;52.516;13.294;2023-04-24T05:57:10;14.40;99.90
47090;DHT22;32840;52.516;13.294;2023-04-24T05:59:55;14.40;99.90
47090;DHT22;32840;52.516;13.294;2023-04-24T06:02:40;14.50;99.90
47090;DHT22;32840;52.516;13.294;2023-04-24T06:05:24;14.60;99.90
47090;DHT22;32840;52.516;13.294;2023-04-24T06:08:10;14.70;99.90
47090;DHT22;32840;52.516;13.294;2023-04-24T06:10:55;14.80;99.90
47090;DHT22;32840;52.516;13.294;2023-04-24T06:13:41;14.90;99.90
47090;DHT22;32840;52.516;13.294;2023-04-24T06:16:26;14.90;99.90
47090;DHT22;32840;52.516;13.294;2023-04-24T06:19:13;14.90;99.90
47090;DHT22;32840;52.516;13.294;2023-04-24T06:21:57;15.00;99.90
47090;DHT22;32840;52.516;13.294;2023-04-24T06:24:42;15.00;99.90
47090;DHT22;32840;52.516;13.294;2023-04-24T06:27:27;15.00;99.90
47090;DHT22;32840;52.516;13.294;2023-04-24T06:30:12;15.20;99.90
47090;DHT22;32840;52.516;13.294;2023-04-24T06:32:57;15.30;99.90
47090;DHT22;32840;52.516;13.294;2023-04-24T06:35:43;15.30;99.90
47090;DHT22;32840;52.516;13.294;2023-04-24T06:38:28;15.40;99.90
47090;DHT22;32840;52.516;13.294;2023-04-24T06:41:14;15.60;99.90
47090;DHT22;32840;52.516;13.294;2023-04-24T06:43:59;15.80;99.90
47090;DHT22;32840;52.516;13.294;2023-04-24T06:46:45;15.90;99.90
47090;DHT22;32840;52.516;13.294;2023-04-24T06:49:30;15.90;99.90
47090;DHT22;32840;52.516;13.294;2023-04-24T06:52:14;16.00;99.90
47090;DHT22;32840;52.516;13.294;2023-04-24T06:55:03;16.10;99.90
47090;DHT22;32840;52.516;13.294;2023-04-24T06:57:49;16.30;99.90
47090;DHT22;32840;52.516;13.294;2023-04-24T07:00:34;16.40;99.90
47090;DHT22;32840;52.516;13.294;2023-04-24T07:03:19;16.40;99.90
47090;DHT22;32840;52.516;13.294;2023-04-24T07:06:05;16.40;99.90
47090;DHT22;32840;52.516;13.294;2023-04-24T07:08:49;16.50;99.90
47090;DHT22;32840;52.516;13.294;2023-04-24T07:11:35;16.60;99.90
47090;DHT22;32840;52.516;13.294;2023-04-24T07:14:23;16.50;99.90
47090;DHT22;32840;52.516;13.294;2023-04-24T07:17:09;16.50;99.90
47090;DHT22;32840;52.516;13.294;2023-04-24T07:19:54;16.60;99.90
47090;DHT22;32840;52.516;13.294;2023-04-24T07:22:39;16.80;99.90
47090;DHT22;32840;52.516;13.294;2023-04-24T07:25:24;16.90;99.90
47090;DHT22;32840;52.516;13.294;2023-04-24T07:28:12;16.90;99.90
47090;DHT22;32840;52.516;13.294;2023-04-24T07:30:57;17.00;99.90
47090;DHT22;32840;52.516;13.294;2023-04-24T07:33:43;17.10;99.90
47090;DHT22;32840;52.516;13.294;2023-04-24T07:36:28;17.20;99.90
47090;DHT22;32840;52.516;13.294;2023-04-24T07:39:12;17.20;99.90
47090;DHT22;32840;52.516;13.294;2023-04-24T07:41:57;17.20;99.90
47090;DHT22;32840;52.516;13.294;2023-04-24T07:44:45;17.20;99.90
47090;DHT22;32840;52.516;13.294;2023-04-24T07:47:32;17.20;99.90
47090;DHT22;32840;52.516;13.294;2023-04-24T07:50:17;17.40;99.90
47090;DHT22;32840;52.516;13.294;2023-04-24T07:53:02;17.60;99.90
47090;DHT22;32840;52.516;13.294;2023-04-24T07:55:47;18.00;99.90
47090;DHT22;32840;52.516;13.294;2023-04-24T07:58:32;18.50;99.90
47090;DHT22;32840;52.516;13.294;2023-04-24T08:01:17;19.00;99.90
47090;DHT22;32840;52.516;13.294;2023-04-24T08:04:02;19.20;96.20
47090;DHT22;32840;52.516;13.294;2023-04-24T08:06:48;19.50;98.10
47090;DHT22;32840;52.516;13.294;2023-04-24T08:09:34;19.90;93.10
47090;DHT22;32840;52.516;13.294;2023-04-24T08:12:19;20.00;91.40
47090;DHT22;32840;52.516;13.294;2023-04-24T08:15:04;20.00;90.40
47090;DHT22;32840;52.516;13.294;2023-04-24T08:17:50;20.10;88.40
47090;DHT22;32840;52.516;13.294;2023-04-24T08:20:37;20.20;88.40
47090;DHT22;32840;52.516;13.294;2023-04-24T08:23:21;20.20;86.90
47090;DHT22;32840;52.516;13.294;2023-04-24T08:26:06;20.50;84.20
47090;DHT22;32840;52.516;13.294;2023-04-24T08:28:52;20.40;83.00
47090;DHT22;32840;52.516;13.294;2023-04-24T08:31:37;20.10;81.20
47090;DHT22;32840;52.516;13.294;2023-04-24T08:34:23;19.50;86.20
47090;DHT22;32840;52.516;13.294;2023-04-24T08:37:08;19.60;85.90
47090;DHT22;32840;52.516;13.294;2023-04-24T08:39:53;19.90;81.30
47090;DHT22;32840;52.516;13.294;2023-04-24T08:42:39;20.10;82.40
47090;DHT22;32840;52.516;13.294;2023-04-24T08:45:24;20.40;79.00
47090;DHT22;32840;52.516;13.294;2023-04-24T08:48:09;20.30;81.40
47090;DHT22;32840;52.516;13.294;2023-04-24T08:50:54;20.40;78.00
47090;DHT22;32840;52.516;13.294;2023-04-24T08:53:39;20.50;78.90
47090;DHT22;32840;52.516;13.294;2023-04-24T08:56:26;20.60;78.90
47090;DHT22;32840;52.516;13.294;2023-04-24T08:59:11;20.60;76.40
47090;DHT22;32840;52.516;13.294;2023-04-24T09:01:57;20.60;78.10
47090;DHT22;32840;52.516;13.294;2023-04-24T09:04:43;20.30;77.20
47090;DHT22;32840;52.516;13.294;2023-04-24T09:07:30;19.70;78.10
47090;DHT22;32840;52.516;13.294;2023-04-24T09:10:16;19.50;79.60
47090;DHT22;32840;52.516;13.294;2023-04-24T09:13:01;19.20;81.70
47090;DHT22;32840;52.516;13.294;2023-04-24T09:15:46;19.50;81.60
47090;DHT22;32840;52.516;13.294;2023-04-24T09:18:33;19.80;81.10
47090;DHT22;32840;52.516;13.294;2023-04-24T09:21:22;20.00;80.60
47090;DHT22;32840;52.516;13.294;2023-04-24T09:24:19;20.10;79.60
47090;DHT22;32840;52.516;13.294;2023-04-24T09:27:07;20.10;78.80
47090;DHT22;32840;52.516;13.294;2023-04-24T09:29:56;19.90;80.40
47090;DHT22;32840;52.516;13.294;2023-04-24T09:32:40;20.10;80.60
47090;DHT22;32840;52.516;13.294;2023-04-24T09:35:26;20.40;80.80
47090;DHT22;32840;52.516;13.294;2023-04-24T09:38:12;20.50;80.10
47090;DHT22;32840;52.516;13.294;2023-04-24T09:41:06;20.20;80.00
47090;DHT22;32840;52.516;13.294;2023-04-24T09:43:56;20.00;81.50
47090;DHT22;32840;52.516;13.294;2023-04-24T09:46:42;19.90;81.50
47090;DHT22;32840;52.516;13.294;2023-04-24T09:49:28;19.70;82.40
47090;DHT22;32840;52.516;13.294;2023-04-24T09:52:15;19.70;81.80
47090;DHT22;32840;52.516;13.294;2023-04-24T09:55:00;19.60;83.00
47090;DHT22;32840;52.516;13.294;2023-04-24T09:57:52;19.50;81.90
47090;DHT22;32840;52.516;13.294;2023-04-24T10:00:39;19.30;81.80
47090;DHT22;32840;52.516;13.294;2023-04-24T10:03:25;19.20;84.50
47090;DHT22;32840;52.516;13.294;2023-04-24T10:06:13;19.20;82.80
47090;DHT22;32840;52.516;13.294;2023-04-24T10:08:59;19.40;83.40
47090;DHT22;32840;52.516;13.294;2023-04-24T10:11:46;19.80;81.30
47090;DHT22;32840;52.516;13.294;2023-04-24T10:14:31;19.90;79.90
47090;DHT22;32840;52.516;13.294;2023-04-24T10:17:16;19.90;81.80
47090;DHT22;32840;52.516;13.294;2023-04-24T10:20:01;19.90;80.40
47090;DHT22;32840;52.516;13.294;2023-04-24T10:22:49;19.80;80.60
47090;DHT22;32840;52.516;13.294;2023-04-24T10:25:38;19.60;81.30
47090;DHT22;32840;52.516;13.294;2023-04-24T10:28:24;19.30;81.60
47090;DHT22;32840;52.516;13.294;2023-04-24T10:31:11;19.20;83.20
47090;DHT22;32840;52.516;13.294;2023-04-24T10:33:58;19.10;84.20
47090;DHT22;32840;52.516;13.294;2023-04-24T10:36:48;19.10;84.20
47090;DHT22;32840;52.516;13.294;2023-04-24T10:39:35;19.00;84.90
47090;DHT22;32840;52.516;13.294;2023-04-24T10:42:21;18.80;85.30
47090;DHT22;32840;52.516;13.294;2023-04-24T10:45:18;18.70;84.90
47090;DHT22;32840;52.516;13.294;2023-04-24T10:48:09;18.70;85.90
47090;DHT22;32840;52.516;13.294;2023-04-24T10:51:02;18.50;86.80
47090;DHT22;32840;52.516;13.294;2023-04-24T10:53:50;18.50;88.50
47090;DHT22;32840;52.516;13.294;2023-04-24T10:56:35;18.50;89.70
47090;DHT22;32840;52.516;13.294;2023-04-24T10:59:27;18.70;88.60
47090;DHT22;32840;52.516;13.294;2023-04-24T11:02:36;19.00;88.00
47090;DHT22;32840;52.516;13.294;2023-04-24T11:05:23;19.30;86.80
47090;DHT22;32840;52.516;13.294;2023-04-24T11:08:31;19.50;84.80
47090;DHT22;32840;52.516;13.294;2023-04-24T11:11:21;19.40;83.20
47090;DHT22;32840;52.516;13.294;2023-04-24T11:14:21;19.40;82.90
47090;DHT22;32840;52.516;13.294;2023-04-24T11:20:18;19.50;82.90
47090;DHT22;32840;52.516;13.294;2023-04-24T11:23:04;19.60;81.40
47090;DHT22;32840;52.516;13.294;2023-04-24T11:26:11;19.60;83.80
47090;DHT22;32840;52.516;13.294;2023-04-24T11:29:07;19.40;83.60
47090;DHT22;32840;52.516;13.294;2023-04-24T11:31:53;19.20;90.70
47090;DHT22;32840;52.516;13.294;2023-04-24T11:34:38;18.90;94.70
47090;DHT22;32840;52.516;13.294;2023-04-24T11:37:26;18.60;97.70
47090;DHT22;32840;52.516;13.294;2023-04-24T11:40:12;18.40;99.90
47090;DHT22;32840;52.516;13.294;2023-04-24T11:42:59;18.20;99.90
47090;DHT22;32840;52.516;13.294;2023-04-24T11:45:48;18.00;99.90
47090;DHT22;32840;52.516;13.294;2023-04-24T11:48:36;18.00;99.90
47090;DHT22;32840;52.516;13.294;2023-04-24T11:51:25;18.10;99.90
47090;DHT22;32840;52.516;13.294;2023-04-24T11:54:11;18.20;99.90
47090;DHT22;32840;52.516;13.294;2023-04-24T11:56:57;18.40;99.90
47090;DHT22;32840;52.516;13.294;2023-04-24T11:59:42;18.60;99.90
47090;DHT22;32840;52.516;13.294;2023-04-24T12:02:27;18.80;99.90
47090;DHT22;32840;52.516;13.294;2023-04-24T12:05:25;18.80;99.90
47090;DHT22;32840;52.516;13.294;2023-04-24T12:08:10;18.70;99.90
47090;DHT22;32840;52.516;13.294;2023-04-24T12:11:00;18.70;99.90
47090;DHT22;32840;52.516;13.294;2023-04-24T12:13:47;18.70;99.90
47090;DHT22;32840;52.516;13.294;2023-04-24T12:16:33;18.70;99.90
47090;DHT22;32840;52.516;13.294;2023-04-24T12:19:22;18.80;99.90
47090;DHT22;32840;52.516;13.294;2023-04-24T12:22:06;18.90;99.90
47090;DHT22;32840;52.516;13.294;2023-04-24T12:24:56;19.10;99.90
47090;DHT22;32840;52.516;13.294;2023-04-24T12:27:43;19.20;99.60
47090;DHT22;32840;52.516;13.294;2023-04-24T12:30:29;19.40;99.40
47090;DHT22;32840;52.516;13.294;2023-04-24T12:33:19;19.50;94.90
47090;DHT22;32840;52.516;13.294;2023-04-24T12:36:05;19.50;94.20
47090;DHT22;32840;52.516;13.294;2023-04-24T12:38:53;19.40;91.00
47090;DHT22;32840;52.516;13.294;2023-04-24T12:41:37;19.50;87.30
47090;DHT22;32840;52.516;13.294;2023-04-24T12:44:33;19.50;84.70
47090;DHT22;32840;52.516;13.294;2023-04-24T12:47:20;19.50;87.80
47090;DHT22;32840;52.516;13.294;2023-04-24T12:50:06;19.50;82.30
47090;DHT22;32840;52.516;13.294;2023-04-24T12:52:50;19.30;82.30
47090;DHT22;32840;52.516;13.294;2023-04-24T12:55:37;19.40;82.20
47090;DHT22;32840;52.516;13.294;2023-04-24T12:58:22;19.50;82.30
47090;DHT22;32840;52.516;13.294;2023-04-24T13:01:09;19.40;82.90
47090;DHT22;32840;52.516;13.294;2023-04-24T13:03:54;19.40;84.50
47090;DHT22;32840;52.516;13.294;2023-04-24T13:06:39;19.30;83.50
47090;DHT22;32840;52.516;13.294;2023-04-24T13:09:24;19.30;86.00
47090;DHT22;32840;52.516;13.294;2023-04-24T13:12:10;19.30;81.90
47090;DHT22;32840;52.516;13.294;2023-04-24T13:14:54;19.50;78.80
47090;DHT22;32840;52.516;13.294;2023-04-24T13:17:41;19.80;78.60
47090;DHT22;32840;52.516;13.294;2023-04-24T13:20:26;19.90;74.30
47090;DHT22;32840;52.516;13.294;2023-04-24T13:23:11;19.60;69.00
47090;DHT22;32840;52.516;13.294;2023-04-24T13:25:56;19.40;69.60
47090;DHT22;32840;52.516;13.294;2023-04-24T13:28:44;19.20;68.90
47090;DHT22;32840;52.516;13.294;2023-04-24T13:31:29;19.00;70.70
47090;DHT22;32840;52.516;13.294;2023-04-24T13:34:16;19.20;71.70
47090;DHT22;32840;52.516;13.294;2023-04-24T13:37:01;19.40;69.30
47090;DHT22;32840;52.516;13.294;2023-04-24T13:39:47;19.40;71.60
47090;DHT22;32840;52.516;13.294;2023-04-24T13:42:33;19.50;74.50
47090;DHT22;32840;52.516;13.294;2023-04-24T13:45:18;19.70;70.30
47090;DHT22;32840;52.516;13.294;2023-04-24T13:48:05;19.80;68.20
47090;DHT22;32840;52.516;13.294;2023-04-24T13:50:49;19.60;65.90
47090;DHT22;32840;52.516;13.294;2023-04-24T13:53:39;19.50;66.00
47090;DHT22;32840;52.516;13.294;2023-04-24T13:56:26;19.60;67.30
47090;DHT22;32840;52.516;13.294;2023-04-24T13:59:13;19.60;65.40
47090;DHT22;32840;52.516;13.294;2023-04-24T14:02:00;19.50;67.30
47090;DHT22;32840;52.516;13.294;2023-04-24T14:04:47;19.40;62.40
47090;DHT22;32840;52.516;13.294;2023-04-24T14:07:33;19.30;66.20
47090;DHT22;32840;52.516;13.294;2023-04-24T14:10:17;19.30;65.70
47090;DHT22;32840;52.516;13.294;2023-04-24T14:13:03;19.30;65.20
47090;DHT22;32840;52.516;13.294;2023-04-24T14:15:48;19.50;63.30
47090;DHT22;32840;52.516;13.294;2023-04-24T14:18:35;19.50;63.40
47090;DHT22;32840;52.516;13.294;2023-04-24T14:21:20;19.50;59.30
47090;DHT22;32840;52.516;13.294;2023-04-24T14:24:05;19.50;57.70
47090;DHT22;32840;52.516;13.294;2023-04-24T14:26:50;19.50;57.00
47090;DHT22;32840;52.516;13.294;2023-04-24T14:29:35;19.50;59.90
47090;DHT22;32840;52.516;13.294;2023-04-24T14:32:20;19.50;57.20
47090;DHT22;32840;52.516;13.294;2023-04-24T14:35:07;19.20;59.70
47090;DHT22;32840;52.516;13.294;2023-04-24T14:37:52;19.20;63.40
47090;DHT22;32840;52.516;13.294;2023-04-24T14:40:37;19.20;61.50
47090;DHT22;32840;52.516;13.294;2023-04-24T14:43:22;19.10;61.80
47090;DHT22;32840;52.516;13.294;2023-04-24T14:46:07;19.00;65.10
47090;DHT22;32840;52.516;13.294;2023-04-24T14:48:51;19.00;61.80
47090;DHT22;32840;52.516;13.294;2023-04-24T14:51:38;19.00;61.70
47090;DHT22;32840;52.516;13.294;2023-04-24T14:54:23;19.00;61.40
47090;DHT22;32840;52.516;13.294;2023-04-24T14:57:08;19.00;58.10
47090;DHT22;32840;52.516;13.294;2023-04-24T14:59:53;19.10;61.20
47090;DHT22;32840;52.516;13.294;2023-04-24T15:02:38;19.10;60.90
47090;DHT22;32840;52.516;13.294;2023-04-24T15:05:26;19.10;60.90
47090;DHT22;32840;52.516;13.294;2023-04-24T15:08:11;18.90;59.40
47090;DHT22;32840;52.516;13.294;2023-04-24T15:10:58;18.80;62.00
47090;DHT22;32840;52.516;13.294;2023-04-24T15:13:43;18.90;66.20
47090;DHT22;32840;52.516;13.294;2023-04-24T15:16:31;19.00;62.00
47090;DHT22;32840;52.516;13.294;2023-04-24T15:19:16;19.00;62.00
47090;DHT22;32840;52.516;13.294;2023-04-24T15:22:02;19.00;66.60
47090;DHT22;32840;52.516;13.294;2023-04-24T15:24:48;18.80;64.70
47090;DHT22;32840;52.516;13.294;2023-04-24T15:27:43;18.70;65.60
47090;DHT22;32840;52.516;13.294;2023-04-24T15:30:28;18.50;63.90
47090;DHT22;32840;52.516;13.294;2023-04-24T15:33:14;18.50;66.70
47090;DHT22;32840;52.516;13.294;2023-04-24T15:36:01;18.40;65.10
47090;DHT22;32840;52.516;13.294;2023-04-24T15:38:47;18.30;63.80
47090;DHT22;32840;52.516;13.294;2023-04-24T15:41:32;18.30;60.10
47090;DHT22;32840;52.516;13.294;2023-04-24T15:44:17;18.20;65.00
47090;DHT22;32840;52.516;13.294;2023-04-24T15:47:02;18.20;63.00
47090;DHT22;32840;52.516;13.294;2023-04-24T15:49:48;18.20;63.50
47090;DHT22;32840;52.516;13.294;2023-04-24T15:52:33;18.30;62.20
47090;DHT22;32840;52.516;13.294;2023-04-24T15:55:18;18.20;61.60
47090;DHT22;32840;52.516;13.294;2023-04-24T15:58:03;18.20;62.00
47090;DHT22;32840;52.516;13.294;2023-04-24T16:00:48;18.00;64.90
47090;DHT22;32840;52.516;13.294;2023-04-24T16:03:34;18.00;61.00
47090;DHT22;32840;52.516;13.294;2023-04-24T16:06:19;18.00;62.10
47090;DHT22;32840;52.516;13.294;2023-04-24T16:09:04;18.00;62.50
47090;DHT22;32840;52.516;13.294;2023-04-24T16:11:49;18.00;65.60
47090;DHT22;32840;52.516;13.294;2023-04-24T16:14:34;18.20;64.20
47090;DHT22;32840;52.516;13.294;2023-04-24T16:17:19;18.30;63.40
47090;DHT22;32840;52.516;13.294;2023-04-24T16:20:04;18.40;64.80
47090;DHT22;32840;52.516;13.294;2023-04-24T16:22:49;18.40;62.00
47090;DHT22;32840;52.516;13.294;2023-04-24T16:25:34;18.40;64.20
47090;DHT22;32840;52.516;13.294;2023-04-24T16:28:19;18.50;60.70
47090;DHT22;32840;52.516;13.294;2023-04-24T16:31:04;18.40;60.20
47090;DHT22;32840;52.516;13.294;2023-04-24T16:33:49;18.40;66.10
47090;DHT22;32840;52.516;13.294;2023-04-24T16:36:38;18.30;65.80
47090;DHT22;32840;52.516;13.294;2023-04-24T16:39:23;18.10;63.50
47090;DHT22;32840;52.516;13.294;2023-04-24T16:42:14;17.90;67.10
47090;DHT22;32840;52.516;13.294;2023-04-24T16:44:59;17.70;68.50
47090;DHT22;32840;52.516;13.294;2023-04-24T16:47:45;17.50;68.50
47090;DHT22;32840;52.516;13.294;2023-04-24T16:50:30;17.30;69.50
47090;DHT22;32840;52.516;13.294;2023-04-24T16:53:15;17.20;74.80
47090;DHT22;32840;52.516;13.294;2023-04-24T16:56:00;17.20;74.40
47090;DHT22;32840;52.516;13.294;2023-04-24T16:58:44;17.20;74.40
47090;DHT22;32840;52.516;13.294;2023-04-24T17:01:30;17.10;76.40
47090;DHT22;32840;52.516;13.294;2023-04-24T17:04:16;17.10;75.00
47090;DHT22;32840;52.516;13.294;2023-04-24T17:07:01;17.00;77.70
47090;DHT22;32840;52.516;13.294;2023-04-24T17:09:45;16.80;77.70
47090;DHT22;32840;52.516;13.294;2023-04-24T17:12:30;16.70;80.20
47090;DHT22;32840;52.516;13.294;2023-04-24T17:15:17;16.50;81.30